Fort Loudoun Observed Data For Previous 48 Hours

Caption
Day and Hour Reservoir Elevation (behind dam)* Tailwater Elevation (below dam)* Average Hourly Discharge*
7/14/2018 2 AM EDT 812.69 740.36 183
7/14/2018 3 AM EDT 812.71 740.58 0
7/14/2018 4 AM EDT 812.75 740.51 0
7/14/2018 5 AM EDT 812.79 740.36 0
7/14/2018 6 AM EDT 812.79 740.32 0
7/14/2018 7 AM EDT 812.81 740.45 13
7/14/2018 8 AM EDT 812.80 740.75 4,907
7/14/2018 9 AM EDT 812.84 740.74 5,079
7/14/2018 10 AM EDT 812.85 740.65 5,089
7/14/2018 11 AM EDT 812.86 740.38 5,078
7/14/2018 12 PM EDT 812.84 740.38 5,090
7/14/2018 1 PM EDT 812.85 740.26 5,057
7/14/2018 2 PM EDT 812.92 740.30 5,076
7/14/2018 3 PM EDT 812.82 741.45 16,876
7/14/2018 4 PM EDT 812.77 742.41 29,005
7/14/2018 5 PM EDT 812.74 742.52 29,102
7/14/2018 6 PM EDT 812.69 742.50 29,155
7/14/2018 7 PM EDT 812.67 742.47 29,166
7/14/2018 8 PM EDT 812.70 741.29 16,824
7/14/2018 9 PM EDT 812.69 740.13 6,278
7/14/2018 10 PM EDT 812.63 740.01 5,880
7/14/2018 11 PM EDT 812.58 740.19 5,852
7/15/2018 12 AM EDT 812.57 740.63 5,852
7/15/2018 1 AM EDT 812.59 740.77 5,839
7/15/2018 2 AM EDT 812.62 740.55 153
7/15/2018 3 AM EDT 812.64 740.43 0
7/15/2018 4 AM EDT 812.67 740.40 0
7/15/2018 5 AM EDT 812.68 740.42 0
7/15/2018 6 AM EDT 812.69 740.31 0
7/15/2018 7 AM EDT 812.71 740.41 17
7/15/2018 8 AM EDT 812.69 740.71 4,915
7/15/2018 9 AM EDT 812.70 740.79 5,032
7/15/2018 10 AM EDT 812.69 740.64 5,059
7/15/2018 11 AM EDT 812.68 740.50 5,052
7/15/2018 12 PM EDT 812.68 740.46 5,077
7/15/2018 1 PM EDT 812.72 740.36 5,097
7/15/2018 2 PM EDT 812.72 740.71 10,448
7/15/2018 3 PM EDT 812.71 740.84 10,772
7/15/2018 4 PM EDT 812.68 741.29 16,977
7/15/2018 5 PM EDT 812.64 741.65 21,157
7/15/2018 6 PM EDT 812.61 741.68 21,279
7/15/2018 7 PM EDT 812.59 741.54 21,208
7/15/2018 8 PM EDT 812.61 741.08 16,852
7/15/2018 9 PM EDT 812.66 740.08 5,936
7/15/2018 10 PM EDT 812.67 739.78 323
7/15/2018 11 PM EDT 812.53 739.91 0
7/16/2018 12 AM EDT 812.54 739.91 0
7/16/2018 1 AM EDT 812.50 739.91 0

Elevations are in feet above sea level. Discharges are in cubic feet per second and are reported at the end of the hour.